createdAt,value
2022-07-27T00:00:47.891Z,98264.44
2022-07-27T00:03:14.701Z,98263.41
2022-07-27T00:05:41.699Z,98258.50
2022-07-27T00:08:08.468Z,98255.88
2022-07-27T00:10:38.266Z,98252.56
2022-07-27T00:13:06.226Z,98255.44
2022-07-27T00:15:34.432Z,98253.88
2022-07-27T00:18:01.241Z,98251.25
2022-07-27T00:20:28.906Z,98252.56
2022-07-27T00:22:55.950Z,98251.38
2022-07-27T00:25:23.507Z,98256.97
2022-07-27T00:27:50.731Z,98260.34
2022-07-27T00:30:17.407Z,98257.84
2022-07-27T00:32:44.141Z,98264.63
2022-07-27T00:35:11.685Z,98260.34
2022-07-27T00:37:40.124Z,98262.34
2022-07-27T00:40:08.190Z,98254.00
2022-07-27T00:42:35.435Z,98261.88
2022-07-27T00:45:02.822Z,98263.53
2022-07-27T00:47:29.469Z,98259.91
2022-07-27T00:49:57.372Z,98265.59
2022-07-27T00:52:24.685Z,98260.34
2022-07-27T00:54:52.766Z,98260.69
2022-07-27T00:57:19.587Z,98259.06
2022-07-27T00:59:46.277Z,98263.50
2022-07-27T01:02:13.001Z,98264.94
2022-07-27T01:04:46.708Z,98262.84
2022-07-27T01:07:14.494Z,98257.50
2022-07-27T01:09:59.802Z,98256.63
2022-07-27T01:12:29.519Z,98253.00
2022-07-27T01:14:58.089Z,98255.22
2022-07-27T01:17:26.386Z,98253.69
2022-07-27T01:19:53.667Z,98252.66
2022-07-27T01:22:20.350Z,98253.66
2022-07-27T01:24:48.479Z,98253.44
2022-07-27T01:27:15.200Z,98253.66
2022-07-27T01:29:42.063Z,98249.06
2022-07-27T01:32:08.885Z,98243.56
2022-07-27T01:34:35.914Z,98239.31
2022-07-27T01:37:03.793Z,98241.06
2022-07-27T01:39:30.824Z,98243.56
2022-07-27T01:41:58.177Z,98240.59
2022-07-27T01:44:24.967Z,98244.94
2022-07-27T01:46:51.870Z,98241.63
2022-07-27T01:49:18.887Z,98243.84
2022-07-27T01:51:45.520Z,98244.72
2022-07-27T01:54:12.557Z,98246.63
2022-07-27T01:56:39.112Z,98238.28
2022-07-27T01:59:05.792Z,98246.13
2022-07-27T02:01:32.526Z,98247.78
2022-07-27T02:03:59.210Z,98248.63
2022-07-27T02:06:26.062Z,98245.25
2022-07-27T02:08:52.653Z,98251.44
2022-07-27T02:11:37.992Z,98245.59
2022-07-27T02:14:04.620Z,98247.06
2022-07-27T02:16:31.341Z,98250.75
2022-07-27T02:18:58.172Z,98244.41
2022-07-27T02:21:25.006Z,98248.59
2022-07-27T02:23:51.755Z,98244.84
2022-07-27T02:26:18.369Z,98242.63
2022-07-27T02:28:45.046Z,98247.81
2022-07-27T02:31:11.622Z,98250.00
2022-07-27T02:33:38.220Z,98247.09
2022-07-27T02:36:05.164Z,98240.78
2022-07-27T02:38:31.775Z,98237.28
2022-07-27T02:40:58.434Z,98239.44
2022-07-27T02:43:25.033Z,98240.50
2022-07-27T02:45:52.160Z,98245.56
2022-07-27T02:48:18.830Z,98240.94
2022-07-27T02:50:45.491Z,98245.56
2022-07-27T02:53:12.062Z,98241.91
2022-07-27T02:55:38.743Z,98246.47
2022-07-27T02:58:05.328Z,98252.50
2022-07-27T03:00:32.030Z,98246.69
2022-07-27T03:02:58.601Z,98249.94
2022-07-27T03:05:25.266Z,98244.41
2022-07-27T03:07:51.870Z,98249.41
2022-07-27T03:10:18.527Z,98240.00
2022-07-27T03:12:45.221Z,98239.34
2022-07-27T03:15:11.840Z,98240.88
2022-07-27T03:17:38.507Z,98241.13
2022-07-27T03:20:05.943Z,98246.84
2022-07-27T03:22:35.570Z,98236.88
2022-07-27T03:25:02.286Z,98235.50
2022-07-27T03:27:29.328Z,98242.06
2022-07-27T03:29:56.654Z,98231.84
2022-07-27T03:32:23.335Z,98238.50
2022-07-27T03:34:50.324Z,98246.78
2022-07-27T03:37:19.021Z,98246.22
2022-07-27T03:39:46.275Z,98250.47
2022-07-27T03:42:13.232Z,98256.38
2022-07-27T03:44:40.079Z,98253.91
2022-07-27T03:47:06.885Z,98263.06
2022-07-27T03:49:33.723Z,98261.94
2022-07-27T03:52:00.503Z,98249.00
2022-07-27T03:54:27.544Z,98254.19
2022-07-27T03:56:54.276Z,98254.09
2022-07-27T03:59:20.994Z,98257.75
2022-07-27T04:01:47.860Z,98257.16
2022-07-27T04:04:14.575Z,98248.44
2022-07-27T04:06:41.177Z,98254.66
2022-07-27T04:09:08.465Z,98250.81
2022-07-27T04:11:37.763Z,98248.69
2022-07-27T04:14:12.806Z,98251.59
2022-07-27T04:16:39.986Z,98253.28
2022-07-27T04:19:06.896Z,98254.25
2022-07-27T04:21:35.345Z,98255.09
2022-07-27T04:24:02.601Z,98272.63
2022-07-27T04:26:29.565Z,98261.56
2022-07-27T04:28:56.255Z,98263.13
2022-07-27T04:31:23.590Z,98259.78
2022-07-27T04:33:50.723Z,98262.97
2022-07-27T04:36:17.421Z,98272.63
2022-07-27T04:38:44.049Z,98268.88
2022-07-27T04:41:10.872Z,98263.44
2022-07-27T04:43:37.596Z,98266.81
2022-07-27T04:46:04.820Z,98274.03
2022-07-27T04:48:35.668Z,98275.56
2022-07-27T04:51:02.467Z,98280.00
2022-07-27T04:53:29.167Z,98270.59
2022-07-27T04:55:55.876Z,98275.22
2022-07-27T04:58:22.773Z,98277.53
2022-07-27T05:00:49.551Z,98280.38
2022-07-27T05:03:16.294Z,98273.34
2022-07-27T05:05:49.922Z,98284.28
2022-07-27T05:08:17.508Z,98279.28
2022-07-27T05:10:44.315Z,98280.72
2022-07-27T05:13:11.217Z,98278.88
2022-07-27T05:15:54.991Z,98288.31
2022-07-27T05:18:22.374Z,98292.19
2022-07-27T05:20:50.357Z,98294.03
2022-07-27T05:23:18.034Z,98294.56
2022-07-27T05:25:44.601Z,98294.56
2022-07-27T05:28:12.656Z,98297.97
2022-07-27T05:30:39.290Z,98304.41
2022-07-27T05:33:05.947Z,98308.81
2022-07-27T05:35:32.614Z,98307.34
2022-07-27T05:37:59.462Z,98310.19
2022-07-27T05:40:26.587Z,98319.72
2022-07-27T05:42:53.372Z,98306.59
2022-07-27T05:45:20.133Z,98318.56
2022-07-27T05:47:46.780Z,98324.63
2022-07-27T05:50:14.374Z,98329.66
2022-07-27T05:52:41.134Z,98333.41
2022-07-27T05:55:08.209Z,98330.41
2022-07-27T05:57:35.242Z,98323.28
2022-07-27T06:00:02.088Z,98334.34
2022-07-27T06:02:39.262Z,98332.34
2022-07-27T06:05:07.659Z,98335.53
2022-07-27T06:07:54.645Z,98336.53
2022-07-27T06:10:21.556Z,98339.75
2022-07-27T06:12:48.256Z,98340.31
2022-07-27T06:15:17.025Z,98340.28
2022-07-27T06:17:44.163Z,98339.84
2022-07-27T06:20:11.035Z,98346.44
2022-07-27T06:22:50.618Z,98351.91
2022-07-27T06:25:18.325Z,98352.53
2022-07-27T06:27:45.397Z,98357.81
2022-07-27T06:30:14.323Z,98350.19
2022-07-27T06:32:41.248Z,98345.03
2022-07-27T06:35:11.529Z,98349.31
2022-07-27T06:37:44.132Z,98358.97
2022-07-27T06:40:13.373Z,98352.22
2022-07-27T06:42:41.619Z,98356.09
2022-07-27T06:45:09.123Z,98353.44
2022-07-27T06:47:36.109Z,98351.09
2022-07-27T06:50:16.223Z,98358.91
2022-07-27T06:52:42.883Z,98348.78
2022-07-27T06:55:09.723Z,98351.66
2022-07-27T06:57:36.314Z,98361.19
2022-07-27T07:00:03.741Z,98355.78
2022-07-27T07:02:30.407Z,98355.00
2022-07-27T07:04:56.998Z,98355.97
2022-07-27T07:07:23.662Z,98354.78
2022-07-27T07:09:50.265Z,98343.44
2022-07-27T07:12:18.350Z,98353.72
2022-07-27T07:14:45.735Z,98355.13
2022-07-27T07:17:12.352Z,98353.75
2022-07-27T07:19:39.082Z,98353.81
2022-07-27T07:22:05.679Z,98355.16
2022-07-27T07:24:32.285Z,98355.47
2022-07-27T07:26:58.926Z,98351.72
2022-07-27T07:29:25.528Z,98359.69
2022-07-27T07:31:52.237Z,98354.53
2022-07-27T07:34:18.857Z,98357.00
2022-07-27T07:36:47.870Z,98355.94
2022-07-27T07:39:15.151Z,98360.09
2022-07-27T07:41:42.076Z,98365.50
2022-07-27T07:44:10.167Z,98360.81
2022-07-27T07:46:37.144Z,98360.38
2022-07-27T07:49:04.984Z,98356.28
2022-07-27T07:51:32.272Z,98365.72
2022-07-27T07:53:59.285Z,98359.66
2022-07-27T07:56:26.019Z,98355.84
2022-07-27T07:58:52.661Z,98351.19
2022-07-27T08:01:19.353Z,98349.00
2022-07-27T08:03:50.576Z,98349.91
2022-07-27T08:06:17.650Z,98356.16
2022-07-27T08:08:44.244Z,98357.06
2022-07-27T08:11:10.886Z,98360.84
2022-07-27T08:13:37.512Z,98352.91
2022-07-27T08:16:04.558Z,98357.41
2022-07-27T08:18:31.274Z,98368.09
2022-07-27T08:20:58.067Z,98356.78
2022-07-27T08:23:24.849Z,98364.28
2022-07-27T08:25:51.426Z,98362.78
2022-07-27T08:28:18.131Z,98363.66
2022-07-27T08:30:45.395Z,98355.00
2022-07-27T08:33:12.650Z,98352.53
2022-07-27T08:35:39.244Z,98354.59
2022-07-27T08:38:07.461Z,98351.44
2022-07-27T08:40:44.176Z,98364.50
2022-07-27T08:43:18.906Z,98371.66
2022-07-27T08:45:58.599Z,98366.41
2022-07-27T08:48:28.670Z,98352.88
2022-07-27T08:50:55.968Z,98359.81
2022-07-27T08:53:23.731Z,98361.56
2022-07-27T08:55:50.871Z,98357.91
2022-07-27T08:58:17.902Z,98358.53
2022-07-27T09:00:48.162Z,98362.59
2022-07-27T09:03:21.369Z,98364.66
2022-07-27T09:05:53.516Z,98364.94
2022-07-27T09:08:26.286Z,98358.63
2022-07-27T09:10:55.522Z,98359.81
2022-07-27T09:13:27.513Z,98363.84
2022-07-27T09:16:17.493Z,98361.56
2022-07-27T09:18:45.470Z,98359.84
2022-07-27T09:21:22.095Z,98360.47
2022-07-27T09:23:57.288Z,98363.91
2022-07-27T09:26:33.617Z,98361.06
2022-07-27T09:29:05.476Z,98357.28
2022-07-27T09:31:33.362Z,98363.72
2022-07-27T09:34:02.881Z,98363.06
2022-07-27T09:36:31.055Z,98363.94
2022-07-27T09:39:05.654Z,98364.25
2022-07-27T09:41:47.630Z,98362.41
2022-07-27T09:44:32.747Z,98358.22
2022-07-27T09:47:01.330Z,98354.06
2022-07-27T09:49:28.294Z,98346.72
2022-07-27T09:51:59.924Z,98343.88
2022-07-27T09:54:27.435Z,98338.56
2022-07-27T09:57:02.172Z,98342.50
2022-07-27T09:59:30.093Z,98348.38
2022-07-27T10:01:57.166Z,98344.44
2022-07-27T10:04:24.938Z,98349.28
2022-07-27T10:07:02.948Z,98351.75
2022-07-27T10:09:31.511Z,98346.00
2022-07-27T10:11:58.510Z,98357.84
2022-07-27T10:14:25.801Z,98365.09
2022-07-27T10:16:53.692Z,98352.13
2022-07-27T10:19:31.725Z,98356.25
2022-07-27T10:21:58.296Z,98356.03
2022-07-27T10:24:26.909Z,98358.50
2022-07-27T10:26:53.698Z,98361.28
2022-07-27T10:29:21.897Z,98357.41
2022-07-27T10:31:54.709Z,98361.72
2022-07-27T10:34:36.584Z,98354.41
2022-07-27T10:37:23.618Z,98353.06
2022-07-27T10:40:12.596Z,98373.72
2022-07-27T10:42:39.838Z,98369.22
2022-07-27T10:45:12.423Z,98359.41
2022-07-27T10:47:43.112Z,98367.00
2022-07-27T10:50:15.763Z,98360.88
2022-07-27T10:52:42.568Z,98362.78
2022-07-27T10:55:32.603Z,98369.66
2022-07-27T10:58:11.003Z,98360.13
2022-07-27T11:00:58.979Z,98369.25
2022-07-27T11:03:42.719Z,98361.91
2022-07-27T11:09:52.529Z,98361.56
2022-07-27T11:11:52.281Z,98361.56
2022-07-27T11:14:30.317Z,98362.06
2022-07-27T11:17:17.247Z,98360.63
2022-07-27T11:19:52.619Z,98355.00
2022-07-27T11:23:09.097Z,98363.16
2022-07-27T11:25:19.286Z,98362.78
2022-07-27T11:27:49.951Z,98366.59
2022-07-27T11:30:27.866Z,98362.44
2022-07-27T11:32:55.881Z,98356.69
2022-07-27T11:35:22.826Z,98350.28
2022-07-27T11:38:05.081Z,98350.75
2022-07-27T11:43:45.425Z,98347.22
2022-07-27T11:46:17.154Z,98349.88
2022-07-27T11:49:09.218Z,98343.69
2022-07-27T11:51:44.622Z,98347.06
2022-07-27T11:54:17.996Z,98347.91
2022-07-27T11:56:49.458Z,98348.03
2022-07-27T11:59:19.205Z,98344.81
2022-07-27T12:01:50.831Z,98338.38
2022-07-27T12:04:19.001Z,98332.19
2022-07-27T12:06:49.668Z,98329.03
2022-07-27T12:09:17.602Z,98333.59
2022-07-27T12:11:53.622Z,98330.47
2022-07-27T12:14:35.291Z,98337.47
2022-07-27T12:17:12.621Z,98342.66
2022-07-27T12:19:40.373Z,98344.94
2022-07-27T12:22:07.491Z,98344.50
2022-07-27T12:24:40.800Z,98346.47
2022-07-27T12:27:14.430Z,98340.75
2022-07-27T12:30:01.783Z,98344.19
2022-07-27T12:32:30.394Z,98348.72
2022-07-27T12:34:57.511Z,98339.28
2022-07-27T12:37:29.908Z,98336.38
2022-07-27T12:39:56.617Z,98335.78
2022-07-27T12:42:33.572Z,98338.84
2022-07-27T12:45:11.247Z,98329.34
2022-07-27T12:47:40.657Z,98327.47
2022-07-27T12:50:26.584Z,98328.38
2022-07-27T12:52:54.080Z,98329.38
2022-07-27T12:55:22.844Z,98323.88
2022-07-27T12:57:57.977Z,98322.06
2022-07-27T13:00:33.586Z,98311.53
2022-07-27T13:03:02.076Z,98315.78
2022-07-27T13:05:29.017Z,98301.47
2022-07-27T13:07:55.746Z,98306.09
2022-07-27T13:10:22.666Z,98316.75
2022-07-27T13:12:50.299Z,98306.13
2022-07-27T13:15:18.189Z,98301.13
2022-07-27T13:17:46.371Z,98298.13
2022-07-27T13:20:14.473Z,98295.16
2022-07-27T13:22:41.999Z,98302.75
2022-07-27T13:25:15.394Z,98302.38
2022-07-27T13:27:43.965Z,98311.44
2022-07-27T13:30:11.446Z,98300.31
2022-07-27T13:32:39.329Z,98293.97
2022-07-27T13:35:07.671Z,98300.97
2022-07-27T13:37:34.575Z,98298.41
2022-07-27T13:40:01.166Z,98306.59
2022-07-27T13:42:27.799Z,98297.97
2022-07-27T13:45:10.354Z,98298.22
2022-07-27T13:47:38.527Z,98293.78
2022-07-27T13:50:05.949Z,98303.81
2022-07-27T13:52:32.683Z,98301.59
2022-07-27T13:54:59.368Z,98303.78
2022-07-27T13:57:26.042Z,98310.31
2022-07-27T13:59:53.170Z,98306.78
2022-07-27T14:02:23.161Z,98299.63
2022-07-27T14:04:51.858Z,98308.63
2022-07-27T14:07:18.586Z,98311.31
2022-07-27T14:10:04.095Z,98307.69
2022-07-27T14:12:30.687Z,98321.00
2022-07-27T14:14:57.430Z,98314.13
2022-07-27T14:17:24.199Z,98321.38
2022-07-27T14:19:50.777Z,98312.16
2022-07-27T14:22:17.377Z,98310.88
2022-07-27T14:24:44.191Z,98306.50
2022-07-27T14:27:10.841Z,98314.97
2022-07-27T14:29:37.436Z,98312.09
2022-07-27T14:32:04.351Z,98300.22
2022-07-27T14:34:31.222Z,98306.63
2022-07-27T14:36:57.937Z,98304.91
2022-07-27T14:39:24.713Z,98308.94
2022-07-27T14:41:51.388Z,98309.38
2022-07-27T14:44:18.926Z,98302.09
2022-07-27T14:46:46.567Z,98305.25
2022-07-27T14:49:17.253Z,98297.97
2022-07-27T14:51:44.050Z,98301.16
2022-07-27T14:54:10.730Z,98296.25
2022-07-27T14:56:37.539Z,98295.50
2022-07-27T14:59:04.712Z,98288.69
2022-07-27T15:01:31.902Z,98295.16
2022-07-27T15:03:58.870Z,98298.94
2022-07-27T15:06:25.640Z,98284.88
2022-07-27T15:08:52.619Z,98290.53
2022-07-27T15:11:19.343Z,98295.16
2022-07-27T15:13:46.002Z,98293.19
2022-07-27T15:16:12.879Z,98293.19
2022-07-27T15:18:39.698Z,98298.44
2022-07-27T15:21:12.698Z,98295.19
2022-07-27T15:23:43.896Z,98289.94
2022-07-27T15:26:12.612Z,98285.34
2022-07-27T15:28:39.995Z,98280.75
2022-07-27T15:31:06.699Z,98280.56
2022-07-27T15:33:33.321Z,98278.34
2022-07-27T15:36:00.020Z,98273.97
2022-07-27T15:38:26.799Z,98274.22
2022-07-27T15:40:53.484Z,98271.13
2022-07-27T15:43:20.066Z,98268.38
2022-07-27T15:45:50.721Z,98270.69
2022-07-27T15:48:19.634Z,98274.53
2022-07-27T15:50:49.854Z,98271.22
2022-07-27T15:53:20.959Z,98268.56
2022-07-27T15:55:49.167Z,98266.78
2022-07-27T15:58:19.633Z,98260.81
2022-07-27T16:00:48.756Z,98260.53
2022-07-27T16:03:16.455Z,98255.94
2022-07-27T16:05:44.477Z,98261.22
2022-07-27T16:08:11.496Z,98250.72
2022-07-27T16:10:39.199Z,98249.19
2022-07-27T16:13:07.139Z,98255.63
2022-07-27T16:15:52.768Z,98248.06
2022-07-27T16:18:19.484Z,98254.88
2022-07-27T16:20:46.586Z,98248.41
2022-07-27T16:23:17.834Z,98242.34
2022-07-27T16:26:04.452Z,98238.94
2022-07-27T16:28:33.783Z,98233.63
2022-07-27T16:31:00.525Z,98235.91
2022-07-27T16:33:27.155Z,98229.03
2022-07-27T16:35:53.772Z,98233.25
2022-07-27T16:38:20.356Z,98231.97
2022-07-27T16:40:46.933Z,98229.31
2022-07-27T16:43:13.554Z,98228.84
2022-07-27T16:45:40.188Z,98224.03
2022-07-27T16:48:06.942Z,98228.59
2022-07-27T16:50:33.765Z,98225.38
2022-07-27T16:53:01.446Z,98230.41
2022-07-27T16:55:28.369Z,98224.34
2022-07-27T16:57:55.937Z,98228.09
2022-07-27T17:00:23.041Z,98228.91
2022-07-27T17:02:49.920Z,98218.22
2022-07-27T17:05:16.612Z,98223.47
2022-07-27T17:07:43.452Z,98215.84
2022-07-27T17:10:10.176Z,98223.84
2022-07-27T17:12:38.872Z,98221.97
2022-07-27T17:15:07.168Z,98214.00
2022-07-27T17:17:34.090Z,98216.50
2022-07-27T17:20:00.733Z,98215.41
2022-07-27T17:22:27.601Z,98216.06
2022-07-27T17:24:54.207Z,98213.84
2022-07-27T17:27:21.976Z,98211.91
2022-07-27T17:29:48.982Z,98206.44
2022-07-27T17:32:15.644Z,98214.81
2022-07-27T17:34:43.484Z,98216.19
2022-07-27T17:37:10.118Z,98210.44
2022-07-27T17:39:36.849Z,98211.94
2022-07-27T17:42:04.389Z,98217.75
2022-07-27T17:44:32.334Z,98212.06
2022-07-27T17:47:00.919Z,98221.41
2022-07-27T17:49:28.099Z,98221.75
2022-07-27T17:51:54.724Z,98218.97
2022-07-27T17:54:22.877Z,98226.91
2022-07-27T17:56:49.558Z,98223.41
2022-07-27T18:02:05.023Z,98237.22
2022-07-27T18:04:37.043Z,98230.44
2022-07-27T18:07:05.668Z,98236.31
2022-07-27T18:09:32.320Z,98240.44
2022-07-27T18:11:58.984Z,98245.19
2022-07-27T18:14:25.626Z,98239.84
2022-07-27T18:16:52.348Z,98248.06
2022-07-27T18:19:19.049Z,98249.13
2022-07-27T18:21:45.613Z,98251.78
2022-07-27T18:24:12.253Z,98245.25
2022-07-27T18:26:38.961Z,98246.22
2022-07-27T18:29:05.926Z,98255.56
2022-07-27T18:31:33.256Z,98250.94
2022-07-27T18:34:01.591Z,98248.47
2022-07-27T18:36:28.726Z,98252.22
2022-07-27T18:38:57.809Z,98255.75
2022-07-27T18:41:24.992Z,98257.78
2022-07-27T18:43:51.738Z,98267.84
2022-07-27T18:46:22.815Z,98265.59
2022-07-27T18:48:49.970Z,98270.66
2022-07-27T18:51:17.257Z,98274.44
2022-07-27T18:53:44.426Z,98277.91
2022-07-27T18:56:11.112Z,98272.28
2022-07-27T18:58:37.985Z,98270.19
2022-07-27T19:01:04.679Z,98268.94
2022-07-27T19:03:31.504Z,98262.56
2022-07-27T19:05:59.129Z,98271.88
2022-07-27T19:08:25.726Z,98276.84
2022-07-27T19:10:52.452Z,98276.38
2022-07-27T19:13:19.208Z,98289.94
2022-07-27T19:15:45.894Z,98284.19
2022-07-27T19:18:12.579Z,98285.22
2022-07-27T19:20:39.215Z,98295.63
2022-07-27T19:23:07.116Z,98296.47
2022-07-27T19:25:34.274Z,98300.00
2022-07-27T19:28:01.716Z,98289.69
2022-07-27T19:30:28.432Z,98298.19
2022-07-27T19:32:55.065Z,98292.59
2022-07-27T19:35:21.673Z,98297.38
2022-07-27T19:37:48.325Z,98299.81
2022-07-27T19:40:42.985Z,98297.78
2022-07-27T19:43:06.769Z,98297.03
2022-07-27T19:45:33.397Z,98290.06
2022-07-27T19:48:01.637Z,98296.31
2022-07-27T19:50:28.288Z,98300.50
2022-07-27T19:52:54.986Z,98304.34
2022-07-27T19:55:21.570Z,98308.78
2022-07-27T19:57:48.247Z,98309.78
2022-07-27T20:00:15.350Z,98308.25
2022-07-27T20:02:42.083Z,98307.72
2022-07-27T20:05:09.171Z,98314.94
2022-07-27T20:07:35.810Z,98309.41
2022-07-27T20:10:02.449Z,98315.09
2022-07-27T20:12:29.073Z,98317.84
2022-07-27T20:14:55.701Z,98316.53
2022-07-27T20:17:22.317Z,98311.53
2022-07-27T20:19:48.915Z,98317.63
2022-07-27T20:22:15.572Z,98320.56
2022-07-27T20:24:42.227Z,98319.81
2022-07-27T20:27:08.829Z,98317.31
2022-07-27T20:29:35.381Z,98331.66
2022-07-27T20:32:02.149Z,98329.13
2022-07-27T20:34:28.831Z,98325.97
2022-07-27T20:36:56.198Z,98318.53
2022-07-27T20:39:25.316Z,98324.56
2022-07-27T20:41:52.286Z,98328.22
2022-07-27T20:44:20.905Z,98321.44
2022-07-27T20:46:47.779Z,98318.38
2022-07-27T20:49:14.749Z,98318.06
2022-07-27T20:51:42.180Z,98317.63
2022-07-27T20:54:08.813Z,98309.84
2022-07-27T20:56:35.452Z,98316.22
2022-07-27T20:59:02.327Z,98321.00
2022-07-27T21:01:34.217Z,98319.22
2022-07-27T21:04:01.078Z,98331.66
2022-07-27T21:06:27.672Z,98327.97
2022-07-27T21:08:54.274Z,98322.56
2022-07-27T21:11:20.851Z,98334.22
2022-07-27T21:13:47.735Z,98324.91
2022-07-27T21:16:14.479Z,98328.34
2022-07-27T21:18:41.156Z,98341.19
2022-07-27T21:21:07.848Z,98344.44
2022-07-27T21:23:53.074Z,98343.78
2022-07-27T21:26:19.682Z,98343.00
2022-07-27T21:28:47.960Z,98353.28
2022-07-27T21:31:14.610Z,98339.69
2022-07-27T21:33:41.367Z,98348.03
2022-07-27T21:36:08.055Z,98348.16
2022-07-27T21:38:34.704Z,98348.69
2022-07-27T21:41:01.306Z,98337.53
2022-07-27T21:43:27.881Z,98346.13
2022-07-27T21:45:54.514Z,98334.13
2022-07-27T21:48:21.173Z,98341.91
2022-07-27T21:50:47.812Z,98331.13
2022-07-27T21:53:14.414Z,98338.94
2022-07-27T21:55:41.146Z,98336.97
2022-07-27T21:58:10.045Z,98337.72
2022-07-27T22:00:37.386Z,98337.09
2022-07-27T22:03:04.437Z,98338.22
2022-07-27T22:05:31.176Z,98331.56
2022-07-27T22:08:00.117Z,98331.31
2022-07-27T22:10:28.876Z,98339.78
2022-07-27T22:12:58.378Z,98337.38
2022-07-27T22:15:25.831Z,98339.13
2022-07-27T22:17:52.463Z,98335.91
2022-07-27T22:20:21.046Z,98340.06
2022-07-27T22:22:48.820Z,98342.69
2022-07-27T22:25:15.874Z,98343.31
2022-07-27T22:27:42.580Z,98342.72
2022-07-27T22:30:09.371Z,98334.09
2022-07-27T22:32:36.155Z,98338.72
2022-07-27T22:35:03.681Z,98337.03
2022-07-27T22:37:30.265Z,98332.75
2022-07-27T22:39:56.901Z,98339.34
2022-07-27T22:42:23.512Z,98333.97
2022-07-27T22:44:50.144Z,98335.50
2022-07-27T22:47:16.785Z,98332.41
2022-07-27T22:49:43.483Z,98335.63
2022-07-27T22:52:10.061Z,98333.47
2022-07-27T22:54:38.059Z,98340.25
2022-07-27T22:57:05.911Z,98344.22
2022-07-27T22:59:32.954Z,98339.94
2022-07-27T23:01:59.630Z,98343.94
2022-07-27T23:04:26.344Z,98343.16
2022-07-27T23:06:52.920Z,98337.00
2022-07-27T23:09:19.503Z,98334.06
2022-07-27T23:11:46.225Z,98346.81
2022-07-27T23:14:13.435Z,98345.88
2022-07-27T23:16:40.810Z,98352.50
2022-07-27T23:19:08.335Z,98353.25
2022-07-27T23:21:35.056Z,98359.09
2022-07-27T23:24:04.875Z,98357.75
2022-07-27T23:26:31.706Z,98362.84
2022-07-27T23:28:58.416Z,98350.94
2022-07-27T23:31:26.151Z,98352.44
2022-07-27T23:33:52.970Z,98354.09
2022-07-27T23:36:19.998Z,98361.34
2022-07-27T23:38:46.595Z,98357.16
2022-07-27T23:41:13.478Z,98352.09
2022-07-27T23:43:40.129Z,98344.81
2022-07-27T23:46:06.890Z,98347.41
2022-07-27T23:48:33.684Z,98345.78
2022-07-27T23:51:00.341Z,98339.41
2022-07-27T23:53:28.451Z,98344.50
2022-07-27T23:55:55.073Z,98335.00
2022-07-27T23:58:21.841Z,98332.53
